Terminal Aerodrome Forecast
Issued by NWS

Home | Current Version | Previous Version | Text Only | Print | Product List | Glossary On
Versions: 1 2 3 4 5 6 7 8 9 10 11 12 13 14 15 16 17 18 19 20 21 22 23 24 25 26 27 28 29 30
379
FTAK31 PANC 090742 AAA
TAFAVD
TAF AMD
PAVD 090742Z 0908/1006 VRB03KT 6SM -SN SCT015 OVC025
      TEMPO 0908/0912 2SM -SN BR BKN015
     FM091200 08006KT P6SM VCFG BKN005 BKN010
     FM091900 08006KT P6SM BKN025
     FM092300 08011G22KT P6SM SCT050
      AMD LTD TO CLD VIS AND WIND=

USA.gov is the U.S. government's official web portal to all federal, state and local government web resources and services.